N7L KORF-KPBI
Flight info
| Callsign | N7L |
|---|---|
| Flight time | 1h 43m |
| Altitude | 38000 |
| Route | SWOPE1 PRONI WAALT Y289 DULEE CLMNT2 |
| Aircraft | B738/M-SDE2E3FGHIRWXY/LB1 |
Departure
| Time | 2026-05-07 03:10 |
|---|---|
| Airport | Norfolk International Airport (KORF) |
Arrival
| Time | 2026-05-07 04:53 |
|---|---|
| Airport | Palm Beach International Airport (KPBI) |
| Time | Latitude | Longitude | Altitude | Speed | Heading |
|---|---|---|---|---|---|
| 2026-05-07 02:29 | 36.88662 | -76.20156 | 28 ft | 0 kts | 131° |
| 2026-05-07 03:02 | 36.88659 | -76.20145 | 32 ft | 5 kts | 101° |
| 2026-05-07 03:02 | 36.88691 | -76.20117 | 28 ft | 7 kts | 14° |
| 2026-05-07 03:02 | 36.88742 | -76.20088 | 27 ft | 9 kts | 32° |
| 2026-05-07 03:02 | 36.88789 | -76.20089 | 30 ft | 7 kts | 327° |
| 2026-05-07 03:03 | 36.88814 | -76.20135 | 27 ft | 7 kts | 286° |
| 2026-05-07 03:03 | 36.88829 | -76.20189 | 27 ft | 7 kts | 289° |
| 2026-05-07 03:03 | 36.88849 | -76.20263 | 27 ft | 11 kts | 289° |
| 2026-05-07 03:03 | 36.88875 | -76.20371 | 27 ft | 13 kts | 286° |
| 2026-05-07 03:04 | 36.88910 | -76.20476 | 29 ft | 13 kts | 300° |
| 2026-05-07 03:04 | 36.88958 | -76.20566 | 30 ft | 11 kts | 307° |
| 2026-05-07 03:04 | 36.89028 | -76.20585 | 30 ft | 12 kts | 22° |
| 2026-05-07 03:04 | 36.89103 | -76.20530 | 28 ft | 14 kts | 32° |
| 2026-05-07 03:05 | 36.89200 | -76.20452 | 28 ft | 18 kts | 33° |
| 2026-05-07 03:05 | 36.89300 | -76.20358 | 30 ft | 18 kts | 38° |
| 2026-05-07 03:05 | 36.89395 | -76.20266 | 31 ft | 17 kts | 38° |
| 2026-05-07 03:05 | 36.89487 | -76.20178 | 33 ft | 16 kts | 38° |
| 2026-05-07 03:06 | 36.89578 | -76.20091 | 31 ft | 18 kts | 37° |
| 2026-05-07 03:06 | 36.89679 | -76.19994 | 30 ft | 19 kts | 38° |
| 2026-05-07 03:06 | 36.89787 | -76.19888 | 27 ft | 21 kts | 37° |
| 2026-05-07 03:06 | 36.89905 | -76.19774 | 27 ft | 21 kts | 38° |
| 2026-05-07 03:07 | 36.90022 | -76.19661 | 28 ft | 21 kts | 38° |
| 2026-05-07 03:07 | 36.90141 | -76.19551 | 28 ft | 21 kts | 29° |
| 2026-05-07 03:07 | 36.90267 | -76.19467 | 27 ft | 21 kts | 35° |
| 2026-05-07 03:07 | 36.90382 | -76.19357 | 26 ft | 20 kts | 37° |
| 2026-05-07 03:08 | 36.90494 | -76.19250 | 23 ft | 21 kts | 38° |
| 2026-05-07 03:08 | 36.90592 | -76.19152 | 21 ft | 11 kts | 41° |
| 2026-05-07 03:08 | 36.90600 | -76.19067 | 22 ft | 11 kts | 121° |
| 2026-05-07 03:08 | 36.90555 | -76.18995 | 26 ft | 6 kts | 129° |
| 2026-05-07 03:09 | 36.90517 | -76.18977 | 26 ft | 6 kts | 197° |
| 2026-05-07 03:09 | 36.90462 | -76.19026 | 26 ft | 22 kts | 217° |
| 2026-05-07 03:09 | 36.90137 | -76.19338 | 28 ft | 96 kts | 217° |
| 2026-05-07 03:09 | 36.89444 | -76.20011 | 86 ft | 149 kts | 218° |
| 2026-05-07 03:10 | 36.88623 | -76.20773 | 822 ft | 146 kts | 217° |
| 2026-05-07 03:10 | 36.87812 | -76.21533 | 1590 ft | 148 kts | 221° |
| 2026-05-07 03:10 | 36.86906 | -76.22358 | 1904 ft | 181 kts | 208° |
| 2026-05-07 03:10 | 36.85582 | -76.22791 | 2125 ft | 208 kts | 198° |
| 2026-05-07 03:11 | 36.84126 | -76.23283 | 2472 ft | 222 kts | 200° |
| 2026-05-07 03:11 | 36.82568 | -76.23825 | 2827 ft | 241 kts | 200° |
| 2026-05-07 03:11 | 36.80956 | -76.24373 | 3589 ft | 246 kts | 200° |
| 2026-05-07 03:11 | 36.79277 | -76.24936 | 4294 ft | 253 kts | 200° |
| 2026-05-07 03:12 | 36.77569 | -76.25504 | 5111 ft | 256 kts | 200° |
| 2026-05-07 03:12 | 36.75817 | -76.26086 | 5805 ft | 264 kts | 200° |
| 2026-05-07 03:12 | 36.74021 | -76.26647 | 6613 ft | 268 kts | 197° |
| 2026-05-07 03:12 | 36.72196 | -76.27080 | 7398 ft | 272 kts | 196° |
| 2026-05-07 03:13 | 36.70329 | -76.27483 | 8242 ft | 274 kts | 195° |
| 2026-05-07 03:13 | 36.68421 | -76.27893 | 9064 ft | 279 kts | 196° |
| 2026-05-07 03:13 | 36.66492 | -76.28312 | 9937 ft | 282 kts | 196° |
| 2026-05-07 03:13 | 36.64548 | -76.28741 | 10495 ft | 296 kts | 196° |
| 2026-05-07 03:14 | 36.62422 | -76.29219 | 10676 ft | 323 kts | 195° |
| 2026-05-07 03:14 | 36.60128 | -76.29732 | 10919 ft | 344 kts | 195° |
| 2026-05-07 03:14 | 36.55329 | -76.30794 | 12248 ft | 355 kts | 195° |
| 2026-05-07 03:15 | 36.52888 | -76.31366 | 13015 ft | 356 kts | 199° |
| 2026-05-07 03:15 | 36.50530 | -76.32333 | 13751 ft | 355 kts | 209° |
| 2026-05-07 03:15 | 36.48326 | -76.33683 | 14439 ft | 357 kts | 212° |
| 2026-05-07 03:15 | 36.46096 | -76.35108 | 15159 ft | 360 kts | 212° |
| 2026-05-07 03:16 | 36.43885 | -76.36530 | 15855 ft | 364 kts | 212° |
| 2026-05-07 03:16 | 36.41613 | -76.37985 | 16578 ft | 367 kts | 213° |
| 2026-05-07 03:16 | 36.39323 | -76.39443 | 17276 ft | 371 kts | 213° |
| 2026-05-07 03:16 | 36.37008 | -76.40910 | 17957 ft | 376 kts | 213° |
| 2026-05-07 03:17 | 36.34669 | -76.42386 | 18575 ft | 380 kts | 213° |
| 2026-05-07 03:17 | 36.32289 | -76.43883 | 19161 ft | 383 kts | 213° |
| 2026-05-07 03:17 | 36.29915 | -76.45373 | 19763 ft | 386 kts | 213° |
| 2026-05-07 03:17 | 36.27506 | -76.46884 | 20364 ft | 389 kts | 213° |
| 2026-05-07 03:18 | 36.25101 | -76.48391 | 20956 ft | 392 kts | 213° |
| 2026-05-07 03:18 | 36.22646 | -76.49928 | 21543 ft | 395 kts | 213° |
| 2026-05-07 03:18 | 36.20195 | -76.51462 | 22104 ft | 399 kts | 213° |
| 2026-05-07 03:18 | 36.17700 | -76.53022 | 22644 ft | 402 kts | 213° |
| 2026-05-07 03:19 | 36.15183 | -76.54595 | 23173 ft | 405 kts | 213° |
| 2026-05-07 03:19 | 36.12672 | -76.56163 | 23661 ft | 409 kts | 213° |
| 2026-05-07 03:19 | 36.10114 | -76.57759 | 24094 ft | 411 kts | 213° |
| 2026-05-07 03:19 | 36.07544 | -76.59361 | 24565 ft | 413 kts | 213° |
| 2026-05-07 03:20 | 36.04995 | -76.60948 | 25013 ft | 414 kts | 213° |
| 2026-05-07 03:20 | 36.02402 | -76.62563 | 25446 ft | 417 kts | 213° |
| 2026-05-07 03:20 | 35.99828 | -76.64164 | 25862 ft | 419 kts | 213° |
| 2026-05-07 03:20 | 35.97206 | -76.65795 | 26257 ft | 421 kts | 213° |
| 2026-05-07 03:21 | 35.94582 | -76.67426 | 26652 ft | 423 kts | 213° |
| 2026-05-07 03:21 | 35.91936 | -76.69068 | 27023 ft | 426 kts | 213° |
| 2026-05-07 03:21 | 35.89341 | -76.70760 | 27378 ft | 426 kts | 216° |
| 2026-05-07 03:21 | 35.86759 | -76.72614 | 27734 ft | 427 kts | 217° |
| 2026-05-07 03:22 | 35.84229 | -76.74493 | 28078 ft | 429 kts | 218° |
| 2026-05-07 03:22 | 35.81672 | -76.76410 | 28420 ft | 431 kts | 218° |
| 2026-05-07 03:22 | 35.79968 | -76.77688 | 28634 ft | 433 kts | 218° |
| 2026-05-07 03:22 | 35.77383 | -76.79618 | 28977 ft | 435 kts | 218° |
| 2026-05-07 03:23 | 35.74769 | -76.81559 | 29301 ft | 437 kts | 217° |
| 2026-05-07 03:23 | 35.72183 | -76.83470 | 29602 ft | 439 kts | 217° |
| 2026-05-07 03:23 | 35.69555 | -76.85406 | 29918 ft | 441 kts | 217° |
| 2026-05-07 03:23 | 35.66915 | -76.87345 | 30282 ft | 440 kts | 217° |
| 2026-05-07 03:24 | 35.64285 | -76.89271 | 30747 ft | 437 kts | 218° |
| 2026-05-07 03:24 | 35.61671 | -76.91183 | 31228 ft | 433 kts | 218° |
| 2026-05-07 03:24 | 35.59107 | -76.93059 | 31663 ft | 432 kts | 218° |
| 2026-05-07 03:24 | 35.56515 | -76.94956 | 32055 ft | 431 kts | 219° |
| 2026-05-07 03:25 | 35.53969 | -76.96819 | 32439 ft | 429 kts | 219° |
| 2026-05-07 03:25 | 35.51392 | -76.98703 | 32853 ft | 428 kts | 219° |
| 2026-05-07 03:25 | 35.48853 | -77.00557 | 33271 ft | 426 kts | 219° |
| 2026-05-07 03:25 | 35.46295 | -77.02425 | 33672 ft | 425 kts | 219° |
| 2026-05-07 03:26 | 35.43770 | -77.04267 | 34037 ft | 424 kts | 219° |
| 2026-05-07 03:26 | 35.41252 | -77.06103 | 34342 ft | 423 kts | 220° |
| 2026-05-07 03:26 | 35.38713 | -77.07954 | 34649 ft | 423 kts | 220° |
| 2026-05-07 03:26 | 35.36184 | -77.09795 | 34947 ft | 422 kts | 220° |
| 2026-05-07 03:27 | 35.33676 | -77.11619 | 35264 ft | 421 kts | 220° |
| 2026-05-07 03:27 | 35.31143 | -77.13459 | 35591 ft | 420 kts | 221° |
| 2026-05-07 03:27 | 35.28627 | -77.15287 | 35901 ft | 419 kts | 221° |
| 2026-05-07 03:27 | 35.26141 | -77.17090 | 36209 ft | 418 kts | 221° |
| 2026-05-07 03:28 | 35.23634 | -77.18908 | 36532 ft | 417 kts | 222° |
| 2026-05-07 03:28 | 35.21159 | -77.20700 | 36856 ft | 416 kts | 223° |
| 2026-05-07 03:28 | 35.18668 | -77.22503 | 37161 ft | 415 kts | 223° |
| 2026-05-07 03:28 | 35.16177 | -77.24307 | 37419 ft | 414 kts | 223° |
| 2026-05-07 03:29 | 35.13716 | -77.26087 | 37679 ft | 414 kts | 224° |
| 2026-05-07 03:29 | 35.11228 | -77.27886 | 37920 ft | 414 kts | 224° |
| 2026-05-07 03:29 | 35.08749 | -77.29677 | 37984 ft | 415 kts | 224° |
| 2026-05-07 03:30 | 35.03799 | -77.33248 | 37986 ft | 413 kts | 224° |
| 2026-05-07 03:30 | 34.98849 | -77.36811 | 37995 ft | 411 kts | 224° |
| 2026-05-07 03:31 | 34.93942 | -77.40340 | 38001 ft | 410 kts | 224° |
| 2026-05-07 03:31 | 34.89027 | -77.43872 | 38009 ft | 409 kts | 224° |
| 2026-05-07 03:32 | 34.84118 | -77.47396 | 38021 ft | 410 kts | 224° |
| 2026-05-07 03:32 | 34.79197 | -77.50922 | 38019 ft | 412 kts | 224° |
| 2026-05-07 03:33 | 34.74247 | -77.54464 | 38015 ft | 414 kts | 224° |
| 2026-05-07 03:33 | 34.69248 | -77.58034 | 38015 ft | 417 kts | 224° |
| 2026-05-07 03:34 | 34.64252 | -77.61597 | 38003 ft | 419 kts | 224° |
| 2026-05-07 03:34 | 34.59231 | -77.65172 | 38010 ft | 420 kts | 223° |
| 2026-05-07 03:34 | 34.56593 | -77.66843 | 37989 ft | 432 kts | 217° |
| 2026-05-07 03:35 | 34.53757 | -77.68090 | 37993 ft | 447 kts | 208° |
| 2026-05-07 03:35 | 34.47552 | -77.69705 | 37997 ft | 455 kts | 205° |
| 2026-05-07 03:36 | 34.41369 | -77.71201 | 38004 ft | 454 kts | 205° |
| 2026-05-07 03:36 | 34.35174 | -77.72739 | 38005 ft | 453 kts | 205° |
| 2026-05-07 03:37 | 34.29028 | -77.74297 | 38004 ft | 451 kts | 205° |
| 2026-05-07 03:37 | 34.22905 | -77.75856 | 38007 ft | 450 kts | 205° |
| 2026-05-07 03:38 | 34.16794 | -77.77407 | 38011 ft | 449 kts | 205° |
| 2026-05-07 03:38 | 34.10702 | -77.78952 | 38010 ft | 448 kts | 206° |
| 2026-05-07 03:39 | 34.04587 | -77.80499 | 38009 ft | 447 kts | 205° |
| 2026-05-07 03:39 | 33.98519 | -77.82033 | 38006 ft | 447 kts | 205° |
| 2026-05-07 03:40 | 33.92433 | -77.83568 | 38009 ft | 447 kts | 205° |
| 2026-05-07 03:40 | 33.86356 | -77.85100 | 38006 ft | 447 kts | 205° |
| 2026-05-07 03:41 | 33.80288 | -77.86626 | 38010 ft | 447 kts | 205° |
| 2026-05-07 03:41 | 33.74302 | -77.88455 | 38015 ft | 439 kts | 210° |
| 2026-05-07 03:42 | 33.68450 | -77.90517 | 38018 ft | 439 kts | 210° |
| 2026-05-07 03:42 | 33.62583 | -77.92550 | 38015 ft | 441 kts | 209° |
| 2026-05-07 03:43 | 33.56678 | -77.94553 | 38022 ft | 441 kts | 209° |
| 2026-05-07 03:43 | 33.50769 | -77.96551 | 38026 ft | 442 kts | 209° |
| 2026-05-07 03:44 | 33.44833 | -77.98558 | 38027 ft | 442 kts | 209° |
| 2026-05-07 03:44 | 33.38914 | -78.00557 | 38025 ft | 443 kts | 209° |
| 2026-05-07 03:45 | 33.32993 | -78.02554 | 38032 ft | 443 kts | 208° |
| 2026-05-07 03:45 | 33.27069 | -78.04549 | 38030 ft | 443 kts | 208° |
| 2026-05-07 03:46 | 33.21096 | -78.06558 | 38030 ft | 443 kts | 208° |
| 2026-05-07 03:46 | 33.15165 | -78.08549 | 38030 ft | 443 kts | 208° |
| 2026-05-07 03:47 | 33.09251 | -78.10533 | 38032 ft | 443 kts | 208° |
| 2026-05-07 03:47 | 33.03290 | -78.12529 | 38037 ft | 443 kts | 207° |
| 2026-05-07 03:48 | 32.97366 | -78.14511 | 38035 ft | 443 kts | 207° |
| 2026-05-07 03:48 | 32.91447 | -78.16488 | 38040 ft | 443 kts | 207° |
| 2026-05-07 03:49 | 32.85516 | -78.18466 | 38035 ft | 443 kts | 206° |
| 2026-05-07 03:49 | 32.79579 | -78.20444 | 38037 ft | 443 kts | 206° |
| 2026-05-07 03:50 | 32.73670 | -78.22410 | 38036 ft | 443 kts | 206° |
| 2026-05-07 03:50 | 32.67716 | -78.24380 | 38037 ft | 443 kts | 206° |
| 2026-05-07 03:51 | 32.61784 | -78.26335 | 38032 ft | 443 kts | 206° |
| 2026-05-07 03:51 | 32.55844 | -78.28290 | 38046 ft | 444 kts | 205° |
| 2026-05-07 03:52 | 32.49865 | -78.30257 | 38049 ft | 444 kts | 205° |
| 2026-05-07 03:52 | 32.43921 | -78.32210 | 38047 ft | 445 kts | 205° |
| 2026-05-07 03:53 | 32.37956 | -78.34167 | 38050 ft | 445 kts | 205° |
| 2026-05-07 03:53 | 32.31993 | -78.36122 | 38050 ft | 445 kts | 205° |
| 2026-05-07 03:54 | 32.26003 | -78.38090 | 38052 ft | 446 kts | 205° |
| 2026-05-07 03:54 | 32.20037 | -78.40050 | 38054 ft | 446 kts | 205° |
| 2026-05-07 03:55 | 32.14065 | -78.42009 | 38054 ft | 446 kts | 205° |
| 2026-05-07 03:55 | 32.08086 | -78.43967 | 38056 ft | 446 kts | 205° |
| 2026-05-07 03:56 | 32.02105 | -78.45923 | 38061 ft | 446 kts | 204° |
| 2026-05-07 03:56 | 31.96121 | -78.47877 | 38059 ft | 447 kts | 204° |
| 2026-05-07 03:57 | 31.90102 | -78.49840 | 38060 ft | 447 kts | 204° |
| 2026-05-07 03:57 | 31.84122 | -78.51788 | 38063 ft | 447 kts | 204° |
| 2026-05-07 03:58 | 31.78149 | -78.53731 | 38063 ft | 447 kts | 204° |
| 2026-05-07 03:58 | 31.72164 | -78.55675 | 38064 ft | 447 kts | 204° |
| 2026-05-07 03:59 | 31.66179 | -78.57617 | 38066 ft | 447 kts | 204° |
| 2026-05-07 03:59 | 31.60166 | -78.59566 | 38067 ft | 447 kts | 204° |
| 2026-05-07 04:00 | 31.54183 | -78.61502 | 38074 ft | 446 kts | 204° |
| 2026-05-07 04:00 | 31.48234 | -78.63513 | 38071 ft | 445 kts | 205° |
| 2026-05-07 04:01 | 31.42312 | -78.65563 | 38072 ft | 445 kts | 205° |
| 2026-05-07 04:01 | 31.36354 | -78.67619 | 38070 ft | 445 kts | 205° |
| 2026-05-07 04:02 | 31.30445 | -78.69645 | 38073 ft | 445 kts | 204° |
| 2026-05-07 04:02 | 31.24470 | -78.71687 | 38072 ft | 445 kts | 204° |
| 2026-05-07 04:03 | 31.18529 | -78.73713 | 38067 ft | 445 kts | 204° |
| 2026-05-07 04:03 | 31.12572 | -78.75744 | 38076 ft | 447 kts | 204° |
| 2026-05-07 04:04 | 31.06625 | -78.77770 | 38086 ft | 448 kts | 204° |
| 2026-05-07 04:04 | 31.00617 | -78.79812 | 38080 ft | 450 kts | 204° |
| 2026-05-07 04:05 | 30.94598 | -78.81855 | 38073 ft | 451 kts | 204° |
| 2026-05-07 04:05 | 30.88546 | -78.83907 | 38080 ft | 451 kts | 204° |
| 2026-05-07 04:06 | 30.82525 | -78.85945 | 38084 ft | 452 kts | 204° |
| 2026-05-07 04:06 | 30.76490 | -78.87986 | 38086 ft | 452 kts | 204° |
| 2026-05-07 04:07 | 30.70490 | -78.90012 | 38087 ft | 452 kts | 204° |
| 2026-05-07 04:07 | 30.64437 | -78.92054 | 38080 ft | 452 kts | 204° |
| 2026-05-07 04:08 | 30.58393 | -78.94090 | 38090 ft | 452 kts | 204° |
| 2026-05-07 04:08 | 30.52333 | -78.96129 | 38082 ft | 453 kts | 204° |
| 2026-05-07 04:09 | 30.46328 | -78.98148 | 38091 ft | 453 kts | 205° |
| 2026-05-07 04:09 | 30.40234 | -79.00113 | 38087 ft | 457 kts | 202° |
| 2026-05-07 04:10 | 30.35040 | -79.01444 | 38094 ft | 459 kts | 200° |
| 2026-05-07 04:10 | 30.27737 | -79.03251 | 38090 ft | 460 kts | 201° |
| 2026-05-07 04:11 | 30.21512 | -79.04855 | 38091 ft | 460 kts | 201° |
| 2026-05-07 04:11 | 30.16304 | -79.06220 | 38091 ft | 461 kts | 201° |
| 2026-05-07 04:12 | 30.10036 | -79.07868 | 38091 ft | 461 kts | 201° |
| 2026-05-07 04:12 | 30.03792 | -79.09503 | 38094 ft | 462 kts | 201° |
| 2026-05-07 04:13 | 29.97518 | -79.11142 | 38100 ft | 463 kts | 201° |
| 2026-05-07 04:13 | 29.91199 | -79.12790 | 38096 ft | 464 kts | 201° |
| 2026-05-07 04:14 | 29.84892 | -79.14433 | 38095 ft | 465 kts | 201° |
| 2026-05-07 04:14 | 29.78592 | -79.16061 | 38093 ft | 465 kts | 201° |
| 2026-05-07 04:15 | 29.72276 | -79.17670 | 38094 ft | 466 kts | 201° |
| 2026-05-07 04:15 | 29.65947 | -79.19280 | 38100 ft | 466 kts | 201° |
| 2026-05-07 04:16 | 29.59596 | -79.20896 | 38105 ft | 467 kts | 201° |
| 2026-05-07 04:16 | 29.53240 | -79.22513 | 38096 ft | 467 kts | 201° |
| 2026-05-07 04:17 | 29.46913 | -79.24121 | 38104 ft | 467 kts | 201° |
| 2026-05-07 04:17 | 29.40578 | -79.25728 | 38103 ft | 468 kts | 201° |
| 2026-05-07 04:18 | 29.34199 | -79.27345 | 38099 ft | 468 kts | 201° |
| 2026-05-07 04:18 | 29.27825 | -79.28958 | 38096 ft | 469 kts | 201° |
| 2026-05-07 04:19 | 29.21479 | -79.30563 | 38101 ft | 469 kts | 201° |
| 2026-05-07 04:19 | 29.15081 | -79.32178 | 38099 ft | 469 kts | 201° |
| 2026-05-07 04:20 | 29.08728 | -79.33780 | 38102 ft | 470 kts | 201° |
| 2026-05-07 04:20 | 29.02312 | -79.35396 | 38101 ft | 470 kts | 201° |
| 2026-05-07 04:21 | 28.92734 | -79.37804 | 38105 ft | 471 kts | 201° |
| 2026-05-07 04:21 | 28.86325 | -79.39413 | 38100 ft | 471 kts | 201° |
| 2026-05-07 04:22 | 28.79948 | -79.41012 | 38101 ft | 472 kts | 201° |
| 2026-05-07 04:22 | 28.73524 | -79.42621 | 38106 ft | 472 kts | 201° |
| 2026-05-07 04:23 | 28.67096 | -79.44228 | 38098 ft | 473 kts | 200° |
| 2026-05-07 04:23 | 28.60670 | -79.45835 | 37810 ft | 478 kts | 200° |
| 2026-05-07 04:24 | 28.57408 | -79.46651 | 37249 ft | 478 kts | 200° |
| 2026-05-07 04:24 | 28.54195 | -79.47451 | 36619 ft | 476 kts | 200° |
| 2026-05-07 04:24 | 28.50949 | -79.48257 | 35968 ft | 475 kts | 200° |
| 2026-05-07 04:24 | 28.47697 | -79.49067 | 35247 ft | 477 kts | 200° |
| 2026-05-07 04:25 | 28.44484 | -79.49868 | 34513 ft | 479 kts | 200° |
| 2026-05-07 04:25 | 28.41201 | -79.50687 | 33677 ft | 482 kts | 199° |
| 2026-05-07 04:25 | 28.37945 | -79.51497 | 32837 ft | 484 kts | 199° |
| 2026-05-07 04:25 | 28.34651 | -79.52314 | 31999 ft | 485 kts | 199° |
| 2026-05-07 04:26 | 28.31334 | -79.53137 | 31129 ft | 487 kts | 199° |
| 2026-05-07 04:26 | 28.28012 | -79.53983 | 30349 ft | 486 kts | 200° |
| 2026-05-07 04:26 | 28.24771 | -79.54855 | 29606 ft | 482 kts | 200° |
| 2026-05-07 04:26 | 28.21520 | -79.55752 | 28908 ft | 476 kts | 200° |
| 2026-05-07 04:27 | 28.18317 | -79.56638 | 28247 ft | 471 kts | 200° |
| 2026-05-07 04:27 | 28.15130 | -79.57516 | 27597 ft | 466 kts | 200° |
| 2026-05-07 04:27 | 28.12033 | -79.58364 | 26974 ft | 461 kts | 200° |
| 2026-05-07 04:27 | 28.08910 | -79.59216 | 26348 ft | 456 kts | 199° |
| 2026-05-07 04:28 | 28.05870 | -79.60043 | 25738 ft | 452 kts | 199° |
| 2026-05-07 04:28 | 28.02813 | -79.60875 | 25105 ft | 449 kts | 199° |
| 2026-05-07 04:28 | 27.99777 | -79.61699 | 24474 ft | 446 kts | 199° |
| 2026-05-07 04:28 | 27.96765 | -79.62516 | 23877 ft | 442 kts | 199° |
| 2026-05-07 04:29 | 27.93814 | -79.63315 | 23248 ft | 439 kts | 198° |
| 2026-05-07 04:29 | 27.90842 | -79.64119 | 22642 ft | 433 kts | 198° |
| 2026-05-07 04:29 | 27.87921 | -79.64909 | 22070 ft | 428 kts | 198° |
| 2026-05-07 04:29 | 27.85064 | -79.65682 | 21527 ft | 424 kts | 198° |
| 2026-05-07 04:30 | 27.82190 | -79.66460 | 20980 ft | 420 kts | 197° |
| 2026-05-07 04:30 | 27.79388 | -79.67218 | 20454 ft | 416 kts | 197° |
| 2026-05-07 04:30 | 27.76583 | -79.67977 | 19925 ft | 413 kts | 197° |
| 2026-05-07 04:30 | 27.73776 | -79.68736 | 19385 ft | 410 kts | 197° |
| 2026-05-07 04:31 | 27.71025 | -79.69480 | 18864 ft | 407 kts | 196° |
| 2026-05-07 04:31 | 27.68255 | -79.70228 | 18226 ft | 405 kts | 196° |
| 2026-05-07 04:31 | 27.65570 | -79.70951 | 17701 ft | 398 kts | 196° |
| 2026-05-07 04:31 | 27.62882 | -79.71675 | 17192 ft | 392 kts | 195° |
| 2026-05-07 04:32 | 27.60230 | -79.72389 | 16690 ft | 389 kts | 195° |
| 2026-05-07 04:32 | 27.57606 | -79.73096 | 16150 ft | 388 kts | 195° |
| 2026-05-07 04:32 | 27.55002 | -79.73797 | 15637 ft | 387 kts | 195° |
| 2026-05-07 04:32 | 27.52370 | -79.74505 | 15130 ft | 386 kts | 194° |
| 2026-05-07 04:33 | 27.49760 | -79.75207 | 14633 ft | 385 kts | 194° |
| 2026-05-07 04:33 | 27.47192 | -79.75897 | 14133 ft | 384 kts | 194° |
| 2026-05-07 04:33 | 27.44577 | -79.76600 | 13596 ft | 384 kts | 194° |
| 2026-05-07 04:33 | 27.42008 | -79.77289 | 13083 ft | 382 kts | 193° |
| 2026-05-07 04:34 | 27.39431 | -79.77981 | 12578 ft | 379 kts | 193° |
| 2026-05-07 04:34 | 27.36869 | -79.78668 | 12092 ft | 376 kts | 193° |
| 2026-05-07 04:34 | 27.34318 | -79.79353 | 11599 ft | 371 kts | 193° |
| 2026-05-07 04:34 | 27.31826 | -79.80021 | 11136 ft | 366 kts | 192° |
| 2026-05-07 04:35 | 27.29390 | -79.80674 | 10671 ft | 361 kts | 192° |
| 2026-05-07 04:35 | 27.26944 | -79.81329 | 10197 ft | 357 kts | 192° |
| 2026-05-07 04:35 | 27.24570 | -79.81964 | 9899 ft | 347 kts | 192° |
| 2026-05-07 04:35 | 27.22279 | -79.82578 | 9895 ft | 329 kts | 191° |
| 2026-05-07 04:36 | 27.20146 | -79.83304 | 9791 ft | 317 kts | 202° |
| 2026-05-07 04:36 | 27.18202 | -79.84423 | 9694 ft | 305 kts | 207° |
| 2026-05-07 04:36 | 27.16380 | -79.85554 | 9449 ft | 299 kts | 207° |
| 2026-05-07 04:36 | 27.14546 | -79.86692 | 9059 ft | 299 kts | 207° |
| 2026-05-07 04:37 | 27.12733 | -79.87802 | 8697 ft | 299 kts | 207° |
| 2026-05-07 04:37 | 27.10909 | -79.88905 | 8374 ft | 297 kts | 206° |
| 2026-05-07 04:37 | 27.09080 | -79.90002 | 8021 ft | 296 kts | 206° |
| 2026-05-07 04:37 | 27.07280 | -79.91076 | 7674 ft | 295 kts | 206° |
| 2026-05-07 04:38 | 27.05467 | -79.92155 | 7340 ft | 294 kts | 206° |
| 2026-05-07 04:38 | 27.03649 | -79.93236 | 7001 ft | 294 kts | 206° |
| 2026-05-07 04:38 | 27.01844 | -79.94309 | 6701 ft | 292 kts | 207° |
| 2026-05-07 04:38 | 27.00067 | -79.95364 | 6379 ft | 291 kts | 207° |
| 2026-05-07 04:39 | 26.98277 | -79.96427 | 6039 ft | 290 kts | 207° |
| 2026-05-07 04:39 | 26.96493 | -79.97485 | 5731 ft | 288 kts | 207° |
| 2026-05-07 04:39 | 26.94749 | -79.98564 | 5416 ft | 285 kts | 213° |
| 2026-05-07 04:39 | 26.93171 | -79.99857 | 5102 ft | 283 kts | 219° |
| 2026-05-07 04:40 | 26.91630 | -80.01240 | 4803 ft | 281 kts | 220° |
| 2026-05-07 04:40 | 26.90105 | -80.02607 | 4495 ft | 279 kts | 219° |
| 2026-05-07 04:40 | 26.88598 | -80.03931 | 4208 ft | 276 kts | 219° |
| 2026-05-07 04:40 | 26.87084 | -80.05242 | 4044 ft | 273 kts | 219° |
| 2026-05-07 04:41 | 26.85599 | -80.06522 | 3998 ft | 262 kts | 218° |
| 2026-05-07 04:41 | 26.84186 | -80.07740 | 4001 ft | 257 kts | 219° |
| 2026-05-07 04:41 | 26.82770 | -80.08971 | 3996 ft | 254 kts | 219° |
| 2026-05-07 04:41 | 26.81433 | -80.10189 | 3984 ft | 244 kts | 228° |
| 2026-05-07 04:42 | 26.80643 | -80.11774 | 4007 ft | 228 kts | 256° |
| 2026-05-07 04:42 | 26.80399 | -80.13520 | 4002 ft | 227 kts | 266° |
| 2026-05-07 04:42 | 26.80284 | -80.15289 | 3998 ft | 227 kts | 268° |
| 2026-05-07 04:42 | 26.80175 | -80.17039 | 4002 ft | 227 kts | 267° |
| 2026-05-07 04:43 | 26.80057 | -80.18808 | 3997 ft | 228 kts | 267° |
| 2026-05-07 04:43 | 26.79934 | -80.20586 | 3997 ft | 228 kts | 266° |
| 2026-05-07 04:43 | 26.79800 | -80.22335 | 3990 ft | 228 kts | 266° |
| 2026-05-07 04:43 | 26.79667 | -80.24104 | 3995 ft | 227 kts | 266° |
| 2026-05-07 04:44 | 26.79533 | -80.25870 | 3994 ft | 227 kts | 266° |
| 2026-05-07 04:44 | 26.79398 | -80.27638 | 3998 ft | 227 kts | 266° |
| 2026-05-07 04:44 | 26.79251 | -80.29377 | 3994 ft | 227 kts | 266° |
| 2026-05-07 04:44 | 26.79103 | -80.31137 | 3989 ft | 227 kts | 265° |
| 2026-05-07 04:45 | 26.78953 | -80.32897 | 3995 ft | 227 kts | 265° |
| 2026-05-07 04:45 | 26.78804 | -80.34661 | 3996 ft | 227 kts | 266° |
| 2026-05-07 04:45 | 26.78660 | -80.36415 | 4001 ft | 227 kts | 266° |
| 2026-05-07 04:45 | 26.78518 | -80.38179 | 4000 ft | 227 kts | 266° |
| 2026-05-07 04:46 | 26.78354 | -80.39929 | 3920 ft | 230 kts | 259° |
| 2026-05-07 04:46 | 26.77641 | -80.41522 | 3781 ft | 231 kts | 226° |
| 2026-05-07 04:46 | 26.76276 | -80.42432 | 3663 ft | 231 kts | 193° |
| 2026-05-07 04:46 | 26.74690 | -80.42648 | 3564 ft | 228 kts | 184° |
| 2026-05-07 04:47 | 26.73122 | -80.42699 | 3439 ft | 228 kts | 173° |
| 2026-05-07 04:47 | 26.71630 | -80.42134 | 3308 ft | 227 kts | 147° |
| 2026-05-07 04:47 | 26.70448 | -80.40981 | 3201 ft | 225 kts | 134° |
| 2026-05-07 04:47 | 26.69601 | -80.39562 | 3051 ft | 222 kts | 104° |
| 2026-05-07 04:48 | 26.69502 | -80.37849 | 3027 ft | 221 kts | 90° |
| 2026-05-07 04:48 | 26.69452 | -80.36126 | 3004 ft | 221 kts | 93° |
| 2026-05-07 04:48 | 26.69374 | -80.34400 | 2999 ft | 221 kts | 93° |
| 2026-05-07 04:48 | 26.69295 | -80.32717 | 2984 ft | 214 kts | 93° |
| 2026-05-07 04:49 | 26.69222 | -80.31111 | 2977 ft | 198 kts | 93° |
| 2026-05-07 04:49 | 26.69154 | -80.29611 | 2999 ft | 190 kts | 93° |
| 2026-05-07 04:49 | 26.69088 | -80.28151 | 2966 ft | 190 kts | 93° |
| 2026-05-07 04:49 | 26.69021 | -80.26659 | 2765 ft | 193 kts | 93° |
| 2026-05-07 04:50 | 26.68954 | -80.25167 | 2515 ft | 187 kts | 94° |
| 2026-05-07 04:50 | 26.68893 | -80.23785 | 2287 ft | 174 kts | 94° |
| 2026-05-07 04:50 | 26.68834 | -80.22473 | 2069 ft | 164 kts | 94° |
| 2026-05-07 04:50 | 26.68778 | -80.21220 | 1865 ft | 160 kts | 95° |
| 2026-05-07 04:51 | 26.68723 | -80.19981 | 1659 ft | 161 kts | 95° |
| 2026-05-07 04:51 | 26.68668 | -80.18736 | 1443 ft | 157 kts | 95° |
| 2026-05-07 04:51 | 26.68616 | -80.17555 | 1264 ft | 145 kts | 95° |
| 2026-05-07 04:51 | 26.68568 | -80.16474 | 1068 ft | 139 kts | 95° |
| 2026-05-07 04:52 | 26.68520 | -80.15384 | 898 ft | 141 kts | 95° |
| 2026-05-07 04:52 | 26.68472 | -80.14293 | 706 ft | 138 kts | 94° |
| 2026-05-07 04:52 | 26.68424 | -80.13233 | 538 ft | 138 kts | 94° |
| 2026-05-07 04:52 | 26.68394 | -80.12165 | 317 ft | 137 kts | 93° |
| 2026-05-07 04:53 | 26.68340 | -80.11119 | 142 ft | 132 kts | 95° |
| 2026-05-07 04:53 | 26.68290 | -80.10102 | 31 ft | 130 kts | 94° |
| 2026-05-07 04:53 | 26.68253 | -80.09254 | 22 ft | 78 kts | 93° |
| 2026-05-07 04:53 | 26.68232 | -80.08804 | 22 ft | 45 kts | 92° |
| 2026-05-07 04:54 | 26.68221 | -80.08537 | 26 ft | 27 kts | 93° |
| 2026-05-07 04:54 | 26.68212 | -80.08338 | 29 ft | 25 kts | 92° |
| 2026-05-07 04:54 | 26.68205 | -80.08189 | 27 ft | 18 kts | 92° |
| 2026-05-07 04:54 | 26.68201 | -80.08051 | 30 ft | 17 kts | 92° |
| 2026-05-07 04:55 | 26.68195 | -80.07917 | 30 ft | 17 kts | 93° |
| 2026-05-07 04:55 | 26.68177 | -80.07811 | 28 ft | 12 kts | 135° |
| 2026-05-07 04:55 | 26.68112 | -80.07798 | 28 ft | 7 kts | 197° |
| 2026-05-07 04:55 | 26.68081 | -80.07840 | 29 ft | 7 kts | 264° |
| 2026-05-07 04:56 | 26.68084 | -80.07895 | 29 ft | 7 kts | 274° |
| 2026-05-07 04:56 | 26.68087 | -80.07954 | 29 ft | 8 kts | 274° |
| 2026-05-07 04:56 | 26.68079 | -80.08028 | 28 ft | 11 kts | 246° |
| 2026-05-07 04:56 | 26.68046 | -80.08118 | 26 ft | 14 kts | 254° |
| 2026-05-07 04:57 | 26.68027 | -80.08202 | 26 ft | 11 kts | 255° |
| 2026-05-07 04:57 | 26.68008 | -80.08280 | 27 ft | 10 kts | 253° |
| 2026-05-07 04:57 | 26.67977 | -80.08309 | 30 ft | 9 kts | 184° |
| 2026-05-07 04:57 | 26.67934 | -80.08306 | 30 ft | 5 kts | 175° |
| 2026-05-07 04:58 | 26.67903 | -80.08276 | 29 ft | 6 kts | 74° |
| 2026-05-07 04:58 | 26.67906 | -80.08268 | 27 ft | 0 kts | 71° |